Sugarloaf Key, Florida
Current Conditions -  °F | °C
As of 12:53 PM on Sunday 25 Jan 2015 (Local Time) from KNQX Reporting Station
Few Clouds Few Clouds  
Wind Chill: 67°   Ceiling: Unl
Heat Index: 67°   Visibility: 10mi
Dew Point: 55°   Wind: 10mph
Humidity: 66%   Direction: 10°N
Pressure: 30.07"   Gusts: NA
Location:  24.6465°N, 81.5399°W
Report Text: KNQX 251753Z 01009KT 10SM FEW035 19/13 A3007 RMK AO2 SLP182 T01940128 10200 20178 58009 $
Loading
Personal Weather Stations






























Interactive Weather Map New forecast layout! Learn more

10-Day Weather Forecast

Advertisements
Track Severe Weather on mobile